createdAt,value
2022-12-15T00:00:27.907Z,1.30
2022-12-15T00:03:32.844Z,1.30
2022-12-15T00:06:38.023Z,1.30
2022-12-15T00:09:42.932Z,1.30
2022-12-15T00:12:48.819Z,1.30
2022-12-15T00:15:53.197Z,1.30
2022-12-15T00:18:57.358Z,1.30
2022-12-15T00:22:01.718Z,1.30
2022-12-15T00:25:05.972Z,1.30
2022-12-15T00:28:11.867Z,1.20
2022-12-15T00:31:17.703Z,1.20
2022-12-15T00:34:22.558Z,1.20
2022-12-15T00:37:27.150Z,1.20
2022-12-15T00:40:14.731Z,1.20
2022-12-15T00:43:02.950Z,1.20
2022-12-15T00:46:07.526Z,1.20
2022-12-15T00:48:54.846Z,1.20
2022-12-15T00:52:00.048Z,1.10
2022-12-15T00:55:04.727Z,1.10
2022-12-15T00:58:09.421Z,1.20
2022-12-15T01:01:15.186Z,1.20
2022-12-15T01:04:19.856Z,1.10
2022-12-15T01:07:24.424Z,1.20
2022-12-15T01:10:28.666Z,1.20
2022-12-15T01:13:33.363Z,1.20
2022-12-15T01:16:39.860Z,1.20
2022-12-15T01:19:44.314Z,1.20
2022-12-15T01:22:31.731Z,1.20
2022-12-15T01:25:19.958Z,1.30
2022-12-15T01:28:07.032Z,1.30
2022-12-15T01:30:54.340Z,1.20
2022-12-15T01:33:43.917Z,1.20
2022-12-15T01:36:31.586Z,1.20
2022-12-15T01:39:18.386Z,1.30
2022-12-15T01:42:04.114Z,1.20
2022-12-15T01:44:53.438Z,1.20
2022-12-15T01:47:41.152Z,1.20
2022-12-15T01:50:32.576Z,1.30
2022-12-15T01:53:20.082Z,1.30
2022-12-15T01:56:09.339Z,1.30
2022-12-15T01:59:02.574Z,1.30
2022-12-15T02:01:50.395Z,1.30
2022-12-15T02:04:38.972Z,1.20
2022-12-15T02:07:27.742Z,1.20
2022-12-15T02:10:14.841Z,1.20
2022-12-15T02:13:12.911Z,1.20
2022-12-15T02:16:11.300Z,1.20
2022-12-15T02:19:07.007Z,1.20
2022-12-15T02:22:06.157Z,1.20
2022-12-15T02:25:22.222Z,1.20
2022-12-15T02:28:12.943Z,1.20
2022-12-15T02:31:25.838Z,1.20
2022-12-15T02:34:20.341Z,1.20
2022-12-15T02:37:11.483Z,1.20
2022-12-15T02:39:58.916Z,1.20
2022-12-15T02:42:51.118Z,1.20
2022-12-15T02:45:47.607Z,1.20
2022-12-15T02:48:44.556Z,1.20
2022-12-15T02:51:43.213Z,1.20
2022-12-15T02:54:43.423Z,1.20
2022-12-15T02:57:39.786Z,1.30
2022-12-15T03:00:27.019Z,1.20
2022-12-15T03:03:20.356Z,1.20
2022-12-15T03:06:10.862Z,1.20
2022-12-15T03:08:57.731Z,1.30
2022-12-15T03:11:44.939Z,1.30
2022-12-15T03:14:33.012Z,1.30
2022-12-15T03:17:20.222Z,1.30
2022-12-15T03:20:08.880Z,1.30
2022-12-15T03:22:57.072Z,1.30
2022-12-15T03:25:46.380Z,1.30
2022-12-15T03:28:36.848Z,1.30
2022-12-15T03:31:23.719Z,1.30
2022-12-15T03:34:10.769Z,1.30
2022-12-15T03:36:57.748Z,1.40
2022-12-15T03:39:46.378Z,1.40
2022-12-15T03:42:51.688Z,1.40
2022-12-15T03:45:38.839Z,1.40
2022-12-15T03:48:25.952Z,1.40
2022-12-15T03:51:12.909Z,1.40
2022-12-15T03:54:00.032Z,1.40
2022-12-15T03:56:48.086Z,1.20
2022-12-15T03:59:35.407Z,1.40
2022-12-15T04:02:22.671Z,1.40
2022-12-15T04:05:14.413Z,1.40
2022-12-15T04:08:02.509Z,1.40
2022-12-15T04:10:49.295Z,1.40
2022-12-15T04:13:37.862Z,1.40
2022-12-15T04:16:25.045Z,1.40
2022-12-15T04:19:29.438Z,1.30
2022-12-15T04:22:18.061Z,1.40
2022-12-15T04:25:23.547Z,1.40
2022-12-15T04:28:28.987Z,1.30
2022-12-15T04:31:39.247Z,1.30
2022-12-15T04:34:44.135Z,1.30
2022-12-15T04:37:48.918Z,1.30
2022-12-15T04:40:54.268Z,1.30
2022-12-15T04:43:58.438Z,1.30
2022-12-15T04:47:04.665Z,1.30
2022-12-15T04:50:08.963Z,1.30
2022-12-15T04:53:13.156Z,1.30
2022-12-15T04:56:18.792Z,1.30
2022-12-15T04:59:24.036Z,1.40
2022-12-15T05:02:29.577Z,1.40
2022-12-15T05:05:34.221Z,1.30
2022-12-15T05:08:38.012Z,1.30
2022-12-15T05:11:42.967Z,1.20
2022-12-15T05:14:49.482Z,1.20
2022-12-15T05:17:55.713Z,1.20
2022-12-15T05:20:59.896Z,1.20
2022-12-15T05:24:04.159Z,1.10
2022-12-15T05:27:08.463Z,1.00
2022-12-15T05:30:12.935Z,1.00
2022-12-15T05:33:04.943Z,0.90
2022-12-15T05:35:51.871Z,0.90
2022-12-15T05:38:39.088Z,0.90
2022-12-15T05:41:26.404Z,0.80
2022-12-15T05:44:13.728Z,0.80
2022-12-15T05:47:00.614Z,0.90
2022-12-15T05:49:49.287Z,0.90
2022-12-15T05:52:36.145Z,1.00
2022-12-15T05:55:22.867Z,1.00
2022-12-15T05:58:09.784Z,0.90
2022-12-15T06:00:57.048Z,0.90
2022-12-15T06:03:45.292Z,0.90
2022-12-15T06:06:34.481Z,1.00
2022-12-15T06:09:21.566Z,1.00
2022-12-15T06:12:08.585Z,0.90
2022-12-15T06:14:55.952Z,0.90
2022-12-15T06:17:42.824Z,0.90
2022-12-15T06:20:29.651Z,0.90
2022-12-15T06:23:18.206Z,0.90
2022-12-15T06:26:10.664Z,0.90
2022-12-15T06:28:59.664Z,0.90
2022-12-15T06:31:47.087Z,0.90
2022-12-15T06:34:33.977Z,0.90
2022-12-15T06:37:20.820Z,0.90
2022-12-15T06:40:10.868Z,0.90
2022-12-15T06:42:59.277Z,0.90
2022-12-15T06:45:50.416Z,0.90
2022-12-15T06:48:37.728Z,0.80
2022-12-15T06:51:24.606Z,0.80
2022-12-15T06:54:12.355Z,0.80
2022-12-15T06:57:00.979Z,0.80
2022-12-15T06:59:47.911Z,0.80
2022-12-15T07:02:34.857Z,0.70
2022-12-15T07:05:22.474Z,0.80
2022-12-15T07:08:09.907Z,0.80
2022-12-15T07:10:56.948Z,0.70
2022-12-15T07:13:45.153Z,0.70
2022-12-15T07:16:32.615Z,0.60
2022-12-15T07:19:19.800Z,0.60
2022-12-15T07:22:06.654Z,0.70
2022-12-15T07:24:53.882Z,0.70
2022-12-15T07:27:42.505Z,0.70
2022-12-15T07:30:36.801Z,0.70
2022-12-15T07:33:26.197Z,0.70
2022-12-15T07:36:13.361Z,0.80
2022-12-15T07:39:02.103Z,0.80
2022-12-15T07:41:49.599Z,0.80
2022-12-15T07:44:36.463Z,0.80
2022-12-15T07:47:25.707Z,0.80
2022-12-15T07:50:12.967Z,0.80
2022-12-15T07:53:00.382Z,0.90
2022-12-15T07:56:07.066Z,1.00
2022-12-15T07:58:55.387Z,1.00
2022-12-15T08:01:42.448Z,1.10
2022-12-15T08:04:31.380Z,1.10
2022-12-15T08:07:18.643Z,1.20
2022-12-15T08:10:06.906Z,1.20
2022-12-15T08:12:55.804Z,1.20
2022-12-15T08:15:43.161Z,1.20
2022-12-15T08:18:30.356Z,1.20
2022-12-15T08:21:19.499Z,1.30
2022-12-15T08:24:07.866Z,1.20
2022-12-15T08:26:54.982Z,1.10
2022-12-15T08:29:51.418Z,1.10
2022-12-15T08:32:39.637Z,1.10
2022-12-15T08:35:55.241Z,1.10
2022-12-15T08:38:36.727Z,1.10
2022-12-15T08:41:27.253Z,1.10
2022-12-15T08:44:16.990Z,1.10
2022-12-15T08:47:03.877Z,1.00
2022-12-15T08:49:50.866Z,1.00
2022-12-15T08:52:55.375Z,0.90
2022-12-15T08:55:51.171Z,0.80
2022-12-15T08:58:38.504Z,0.80
2022-12-15T09:01:27.460Z,0.80
2022-12-15T09:04:15.407Z,0.80
2022-12-15T09:07:02.490Z,0.80
2022-12-15T09:09:49.227Z,0.80
2022-12-15T09:12:38.981Z,0.80
2022-12-15T09:15:45.409Z,0.90
2022-12-15T09:18:34.219Z,0.80
2022-12-15T09:21:23.892Z,0.80
2022-12-15T09:24:23.210Z,0.90
2022-12-15T09:27:15.945Z,1.00
2022-12-15T09:30:04.968Z,1.10
2022-12-15T09:32:51.847Z,1.10
2022-12-15T09:35:39.175Z,0.90
2022-12-15T09:38:26.579Z,0.90
2022-12-15T09:41:22.987Z,0.90
2022-12-15T09:44:14.116Z,1.00
2022-12-15T09:47:15.885Z,0.90
2022-12-15T09:50:05.782Z,0.80
2022-12-15T09:52:56.839Z,0.80
2022-12-15T09:55:47.125Z,0.80
2022-12-15T09:58:45.715Z,0.80
2022-12-15T10:01:46.682Z,1.00
2022-12-15T10:04:45.917Z,1.10
2022-12-15T10:07:43.837Z,1.20
2022-12-15T10:10:35.985Z,1.10
2022-12-15T10:13:30.005Z,1.00
2022-12-15T10:16:25.852Z,1.10
2022-12-15T10:19:17.633Z,1.10
2022-12-15T10:22:06.364Z,1.10
2022-12-15T10:25:11.061Z,1.00
2022-12-15T10:28:25.886Z,1.10
2022-12-15T10:31:20.685Z,1.20
2022-12-15T10:34:12.609Z,1.30
2022-12-15T10:37:00.270Z,1.40
2022-12-15T10:39:50.434Z,1.50
2022-12-15T10:42:48.343Z,1.50
2022-12-15T10:45:39.970Z,1.60
2022-12-15T10:48:27.120Z,1.60
2022-12-15T10:51:21.081Z,1.60
2022-12-15T10:54:14.409Z,1.70
2022-12-15T10:57:18.016Z,1.60
2022-12-15T11:00:28.460Z,1.80
2022-12-15T11:03:26.792Z,2.00
2022-12-15T11:06:19.525Z,2.10
2022-12-15T11:09:28.321Z,2.10
2022-12-15T11:12:38.736Z,2.00
2022-12-15T11:15:47.224Z,2.00
2022-12-15T11:18:43.776Z,2.10
2022-12-15T11:21:36.336Z,2.10
2022-12-15T11:24:32.251Z,2.20
2022-12-15T11:27:27.236Z,2.30
2022-12-15T11:30:16.880Z,2.30
2022-12-15T11:33:04.380Z,2.20
2022-12-15T11:36:09.834Z,2.10
2022-12-15T11:39:03.130Z,2.10
2022-12-15T11:41:59.375Z,2.20
2022-12-15T11:44:59.035Z,2.30
2022-12-15T11:47:51.196Z,2.20
2022-12-15T11:50:54.719Z,2.20
2022-12-15T11:54:00.738Z,2.20
2022-12-15T11:56:52.184Z,2.30
2022-12-15T12:00:03.985Z,2.30
2022-12-15T12:03:10.597Z,2.30
2022-12-15T12:06:06.639Z,2.40
2022-12-15T12:09:12.011Z,2.40
2022-12-15T12:12:11.840Z,2.50
2022-12-15T12:15:16.567Z,2.50
2022-12-15T12:18:10.415Z,2.50
2022-12-15T12:21:02.526Z,2.60
2022-12-15T12:23:56.025Z,2.70
2022-12-15T12:26:48.753Z,2.70
2022-12-15T12:29:40.853Z,2.50
2022-12-15T12:32:40.128Z,2.50
2022-12-15T12:35:34.111Z,2.40
2022-12-15T12:38:26.109Z,2.50
2022-12-15T12:41:21.579Z,2.50
2022-12-15T12:44:17.463Z,2.40
2022-12-15T12:47:10.327Z,2.20
2022-12-15T12:50:02.477Z,2.20
2022-12-15T12:52:53.048Z,2.20
2022-12-15T12:55:42.435Z,2.10
2022-12-15T12:58:34.515Z,2.20
2022-12-15T13:01:28.796Z,2.20
2022-12-15T13:04:39.743Z,2.30
2022-12-15T13:07:34.900Z,2.30
2022-12-15T13:10:24.828Z,2.30
2022-12-15T13:13:36.216Z,2.30
2022-12-15T13:16:26.494Z,2.40
2022-12-15T13:19:14.335Z,2.30
2022-12-15T13:22:02.242Z,2.20
2022-12-15T13:24:52.919Z,2.10
2022-12-15T13:27:41.718Z,2.00
2022-12-15T13:30:29.207Z,2.00
2022-12-15T13:33:20.087Z,2.00
2022-12-15T13:36:07.476Z,1.90
2022-12-15T13:38:56.550Z,1.90
2022-12-15T13:42:15.349Z,1.90
2022-12-15T13:44:58.666Z,2.00
2022-12-15T13:47:54.689Z,1.80
2022-12-15T13:50:51.394Z,1.80
2022-12-15T13:53:43.219Z,1.90
2022-12-15T13:56:56.054Z,1.80
2022-12-15T13:59:46.375Z,1.70
2022-12-15T14:02:38.090Z,1.70
2022-12-15T14:05:26.211Z,1.50
2022-12-15T14:08:17.539Z,1.50
2022-12-15T14:14:19.755Z,1.50
2022-12-15T14:17:10.525Z,1.50
2022-12-15T14:19:57.790Z,1.40
2022-12-15T14:22:46.237Z,1.50
2022-12-15T14:25:36.314Z,1.40
2022-12-15T14:28:29.963Z,1.40
2022-12-15T14:31:21.261Z,1.20
2022-12-15T14:34:14.471Z,1.10
2022-12-15T14:37:04.733Z,1.00
2022-12-15T14:39:51.630Z,0.90
2022-12-15T14:42:39.730Z,0.90
2022-12-15T14:45:32.168Z,0.90
2022-12-15T14:48:40.885Z,0.90
2022-12-15T14:51:44.075Z,0.90
2022-12-15T14:54:36.884Z,0.90
2022-12-15T14:57:26.402Z,0.90
2022-12-15T15:00:29.206Z,0.90
2022-12-15T15:03:14.144Z,1.50
2022-12-15T15:03:25.162Z,0.90
2022-12-15T15:06:20.012Z,0.90
2022-12-15T15:09:20.856Z,0.90
2022-12-15T15:12:10.288Z,0.90
2022-12-15T15:15:02.649Z,0.90
2022-12-15T15:17:52.653Z,0.90
2022-12-15T15:20:41.220Z,0.90
2022-12-15T15:23:28.685Z,0.80
2022-12-15T15:26:17.990Z,0.80
2022-12-15T15:29:05.597Z,0.80
2022-12-15T15:31:54.667Z,0.90
2022-12-15T15:34:41.935Z,0.80
2022-12-15T15:37:30.676Z,0.80
2022-12-15T15:40:19.136Z,0.70
2022-12-15T15:43:12.117Z,0.70
2022-12-15T15:46:03.456Z,0.60
2022-12-15T15:48:53.360Z,0.50
2022-12-15T15:51:40.549Z,0.50
2022-12-15T15:54:35.750Z,0.50
2022-12-15T15:57:25.340Z,0.50
2022-12-15T16:00:22.968Z,0.50
2022-12-15T16:03:10.119Z,0.50
2022-12-15T16:05:57.926Z,0.60
2022-12-15T16:08:45.370Z,0.60
2022-12-15T16:11:35.416Z,0.60
2022-12-15T16:14:22.525Z,0.60
2022-12-15T16:17:10.771Z,0.60
2022-12-15T16:19:57.564Z,0.60
2022-12-15T16:22:46.548Z,0.50
2022-12-15T16:25:43.831Z,0.40
2022-12-15T16:28:37.504Z,0.40
2022-12-15T16:31:37.096Z,0.40
2022-12-15T16:34:28.143Z,0.40
2022-12-15T16:37:26.307Z,0.60
2022-12-15T16:40:22.816Z,0.50
2022-12-15T16:43:15.460Z,0.60
2022-12-15T16:46:04.093Z,0.60
2022-12-15T16:48:51.869Z,0.70
2022-12-15T16:51:41.088Z,0.60
2022-12-15T16:54:30.005Z,0.50
2022-12-15T16:57:17.310Z,0.50
2022-12-15T17:00:15.329Z,0.50
2022-12-15T17:03:04.544Z,0.50
2022-12-15T17:05:53.580Z,0.50
2022-12-15T17:08:44.766Z,0.50
2022-12-15T17:11:32.291Z,0.50
2022-12-15T17:14:19.195Z,0.40
2022-12-15T17:17:14.177Z,0.40
2022-12-15T17:20:28.498Z,0.50
2022-12-15T17:23:15.542Z,0.50
2022-12-15T17:26:25.640Z,0.50
2022-12-15T17:29:17.136Z,0.60
2022-12-15T17:32:04.130Z,0.60
2022-12-15T17:34:51.263Z,0.60
2022-12-15T17:37:41.608Z,0.60
2022-12-15T17:40:29.703Z,0.70
2022-12-15T17:43:18.596Z,0.60
2022-12-15T17:46:05.602Z,0.60
2022-12-15T17:48:52.776Z,0.60
2022-12-15T17:51:39.688Z,0.70
2022-12-15T17:54:28.324Z,0.70
2022-12-15T17:57:15.391Z,0.70
2022-12-15T18:00:03.959Z,0.70
2022-12-15T18:02:51.170Z,0.80
2022-12-15T18:05:39.067Z,0.80
2022-12-15T18:08:27.991Z,0.80
2022-12-15T18:11:17.600Z,0.80
2022-12-15T18:14:05.146Z,0.70
2022-12-15T18:16:52.344Z,0.70
2022-12-15T18:19:39.273Z,0.70
2022-12-15T18:22:44.377Z,0.70
2022-12-15T18:25:34.996Z,0.60
2022-12-15T18:28:25.776Z,0.60
2022-12-15T18:31:34.152Z,0.50
2022-12-15T18:34:24.603Z,0.50
2022-12-15T18:37:17.692Z,0.50
2022-12-15T18:40:05.407Z,0.40
2022-12-15T18:42:54.318Z,0.50
2022-12-15T18:45:43.430Z,0.50
2022-12-15T18:48:32.594Z,0.40
2022-12-15T18:51:21.736Z,0.50
2022-12-15T18:54:16.631Z,0.50
2022-12-15T18:57:03.864Z,0.50
2022-12-15T18:59:50.865Z,0.50
2022-12-15T19:02:39.807Z,0.50
2022-12-15T19:05:32.673Z,0.50
2022-12-15T19:08:25.770Z,0.50
2022-12-15T19:11:18.283Z,0.50
2022-12-15T19:14:26.234Z,0.40
2022-12-15T19:17:33.228Z,0.50
2022-12-15T19:20:40.051Z,0.50
2022-12-15T19:23:27.399Z,0.50
2022-12-15T19:26:14.314Z,0.40
2022-12-15T19:29:01.881Z,0.40
2022-12-15T19:31:49.857Z,0.40
2022-12-15T19:34:37.452Z,0.40
2022-12-15T19:37:55.380Z,0.40
2022-12-15T19:40:45.111Z,0.40
2022-12-15T19:43:32.557Z,0.40
2022-12-15T19:46:22.561Z,0.50
2022-12-15T19:49:10.054Z,0.50
2022-12-15T19:51:57.422Z,0.50
2022-12-15T19:54:52.000Z,0.50
2022-12-15T19:57:39.805Z,0.60
2022-12-15T20:00:28.246Z,0.60
2022-12-15T20:03:15.202Z,0.60
2022-12-15T20:06:04.146Z,0.60
2022-12-15T20:08:52.935Z,0.50
2022-12-15T20:11:43.818Z,0.50
2022-12-15T20:14:31.130Z,0.50
2022-12-15T20:17:18.569Z,0.60
2022-12-15T20:20:32.115Z,0.60
2022-12-15T20:23:32.747Z,0.60
2022-12-15T20:26:21.293Z,0.50
2022-12-15T20:29:22.724Z,0.50
2022-12-15T20:32:16.166Z,0.50
2022-12-15T20:35:03.932Z,0.60
2022-12-15T20:37:52.743Z,0.60
2022-12-15T20:40:39.542Z,0.50
2022-12-15T20:43:28.110Z,0.40
2022-12-15T20:46:20.261Z,0.30
2022-12-15T20:49:14.473Z,0.30
2022-12-15T20:52:01.413Z,0.40
2022-12-15T20:54:48.493Z,0.50
2022-12-15T20:57:35.690Z,0.50
2022-12-15T21:00:23.394Z,0.60
2022-12-15T21:03:25.653Z,0.60
2022-12-15T21:06:12.829Z,0.60
2022-12-15T21:08:59.840Z,0.70
2022-12-15T21:11:48.325Z,0.70
2022-12-15T21:14:35.892Z,0.80
2022-12-15T21:17:25.710Z,0.80
2022-12-15T21:20:15.320Z,0.80
2022-12-15T21:23:03.488Z,0.80
2022-12-15T21:25:51.323Z,0.80
2022-12-15T21:28:38.639Z,0.80
2022-12-15T21:31:25.581Z,0.90
2022-12-15T21:35:17.504Z,0.90
2022-12-15T21:38:08.061Z,0.90
2022-12-15T21:41:00.748Z,0.80
2022-12-15T21:43:49.517Z,0.90
2022-12-15T21:46:41.035Z,0.90
2022-12-15T21:49:28.659Z,0.90
2022-12-15T21:52:17.849Z,1.00
2022-12-15T21:55:15.548Z,0.90
2022-12-15T21:58:04.224Z,0.90
2022-12-15T22:00:53.328Z,0.90
2022-12-15T22:03:44.592Z,0.80
2022-12-15T22:06:32.853Z,0.90
2022-12-15T22:09:22.151Z,0.90
2022-12-15T22:12:21.426Z,0.90
2022-12-15T22:15:16.750Z,0.90
2022-12-15T22:18:04.896Z,0.90
2022-12-15T22:20:53.906Z,0.90
2022-12-15T22:23:41.870Z,1.00
2022-12-15T22:26:32.812Z,0.90
2022-12-15T22:29:24.024Z,0.90
2022-12-15T22:32:14.902Z,0.90
2022-12-15T22:35:02.570Z,0.90
2022-12-15T22:37:54.003Z,0.90
2022-12-15T22:40:43.635Z,0.90
2022-12-15T22:43:36.495Z,0.90
2022-12-15T22:46:27.108Z,0.90
2022-12-15T22:49:17.964Z,0.90
2022-12-15T22:52:15.465Z,1.00
2022-12-15T22:55:03.750Z,0.90
2022-12-15T22:57:58.899Z,0.90
2022-12-15T23:00:47.448Z,1.00
2022-12-15T23:03:37.549Z,1.00
2022-12-15T23:06:26.032Z,1.00
2022-12-15T23:09:14.112Z,1.00
2022-12-15T23:12:01.317Z,1.00
2022-12-15T23:15:07.012Z,1.00
2022-12-15T23:17:54.092Z,1.00
2022-12-15T23:20:44.346Z,1.00
2022-12-15T23:23:33.829Z,0.90
2022-12-15T23:26:24.480Z,0.90
2022-12-15T23:29:12.179Z,1.00
2022-12-15T23:32:00.238Z,1.00
2022-12-15T23:34:48.857Z,1.00
2022-12-15T23:37:39.257Z,0.90
2022-12-15T23:40:27.303Z,0.90
2022-12-15T23:43:15.041Z,0.90
2022-12-15T23:46:05.608Z,0.90
2022-12-15T23:48:53.673Z,0.90
2022-12-15T23:51:43.153Z,0.90
2022-12-15T23:54:33.427Z,1.00
2022-12-15T23:57:22.207Z,1.00
